Warning: Javascript must be enabled to use all the features on this page!


Page Loading - Please Wait...

Click to hideNews Bulletins
* IMPORTANT: Next Generation Station Page

USGS 04189260 Blanchard River at Ottawa OH

PROVISIONAL DATA SUBJECT TO REVISION

Click to hidestation-specific text
Funding for this site is provided by:

 

> WaterNow – get the latest gage data from your mobile phone or email.
> Rating Information

Want to learn more about areas near this gage that are inundated during flooding? See the USGS flood-inundation mapper.
Available Parameters Available Period
All 2 Available Parameters for this site
  
00060 Discharge 2009-10-01  2019-06-17
00065 Gage height 2009-10-01  2019-06-17

Graph
Graph w/ stats
Graph w/o stats
Graph w/ (up to 3) parms
Table
Tab-separated
Days  (7)
 

  -- or --
Begin date
 

End date
 

Summary of all available data for this site
Instantaneous-data availability statement
Gage height, feet
TIMEJun 10Jun 11Jun 12Jun 13Jun 14Jun 15Jun 16Jun 17
00:00 EDT9.13P  9.13P  9.53P  8.65P  8.17P  9.33P  10.35P  16.31P  
00:30 EDT9.12P  9.23P  9.49P  8.63P  8.16P  9.44P  10.33P  16.43P  
01:00 EDT9.10P  9.32P  9.45P  8.62P  8.15P  9.52P  10.31P  16.53P  
01:30 EDT9.09P  9.42P  9.42P  8.61P  8.14P  9.62P  10.29P  16.63P  
02:00 EDT9.07P  9.53P  9.38P  8.60P  8.13P  9.71P  10.27P  16.72P  
02:30 EDT9.06P  9.66P  9.35P  8.59P  8.13P  9.78P  10.25P  16.79P  
03:00 EDT9.04P  9.81P  9.32P  8.57P  8.11P  9.86P  10.23P  16.86P  
03:30 EDT9.03P  9.97P  9.29P  8.56P  8.11P  9.92P  10.21P  16.92P  
04:00 EDT9.01P  10.12P  9.26P  8.54P  8.10P  10.00P  10.19P  16.99P  
04:30 EDT9.00P  10.26P  9.23P  8.53P  8.10P  10.07P  10.17P  17.05P  
05:00 EDT8.99P  10.38P  9.21P  8.53P  8.09P  10.14P  10.15P  17.10P  
05:30 EDT8.97P  10.49P  9.18P  8.51P  8.08P  10.13P  10.14P  17.15P  
06:00 EDT8.96P  10.58P  9.16P  8.50P  8.08P  10.16P  10.13P  17.20P  
06:30 EDT8.94P  10.65P  9.13P  8.49P  8.07P  10.18P  10.12P  17.24P  
07:00 EDT8.92P  10.70P  9.11P  8.47P  8.07P  10.20P  10.11P  17.29P  
07:30 EDT8.91P  10.73P  9.09P  8.46P  8.06P  10.23P  10.11P  17.33P  
08:00 EDT8.90P  10.75P  9.07P  8.45P  8.06P  10.26P  10.10P  17.37P  
08:30 EDT8.88P  10.76P  9.05P  8.43P  8.06P  10.27P  10.11P  17.41P  
09:00 EDT8.86P  10.75P  9.02P  8.42P  8.06P  10.29P  10.13P  17.46P  
09:30 EDT8.85P  10.74P  9.01P  8.40P  8.06P  10.31P  10.15P  17.49P  
10:00 EDT8.83P  10.72P  8.99P  8.39P  8.06P  10.31P  10.18P  17.53P  
10:30 EDT8.81P  10.70P  8.97P  8.38P  8.07P  10.33P  10.22P  17.57P  
11:00 EDT8.80P  10.67P  8.96P  8.37P  8.08P  10.33P  10.29P  17.60P  
11:30 EDT8.78P  10.64P  8.94P  8.35P  8.08P  10.34P  10.36P  17.63P  
12:00 EDT8.77P  10.61P  8.93P  8.34P  8.10P  10.35P  10.47P  17.67P  
12:30 EDT8.75P  10.57P  8.91P  8.32P  8.12P  10.35P  10.62P  17.69P  
13:00 EDT8.73P  10.53P  8.90P  8.31P  8.14P  10.36P  10.83P  17.73P  
13:30 EDT8.72P  10.48P  8.89P  8.29P  8.16P  10.36P  11.12P  17.76P  
14:00 EDT8.71P  10.44P  8.88P  8.28P  8.18P  10.38P  11.44P  17.79P  
14:30 EDT8.69P  10.40P  8.86P  8.27P  8.21P  10.38P  11.77P  17.81P  
15:00 EDT8.68P  10.35P  8.85P  8.26P  8.25P  10.39P  12.10P  17.85P  
15:30 EDT8.66P  10.30P  8.84P  8.24P  8.28P  10.40P  12.43P  17.88P  
16:00 EDT8.65P  10.26P  8.83P  8.23P  8.32P  10.41P  12.77P  17.90P  
16:30 EDT8.63P  10.21P  8.82P  8.21P  8.35P  10.41P  13.09P  17.92P  
17:00 EDT8.62P  10.16P  8.80P  8.21P  8.39P  10.42P  13.40P  17.95P  
17:30 EDT8.61P  10.11P  8.79P  8.20P  8.42P  10.41P  13.69P  17.97P  
18:00 EDT8.60P  10.06P  8.78P  8.20P  8.46P  10.41P  13.97P  17.99P  
18:30 EDT8.58P  10.01P  8.76P  8.20P  8.51P  10.41P  14.24P  18.01P  
19:00 EDT8.57P  9.96P  8.75P  8.20P  8.55P  10.41P  14.48P  18.03P  
19:30 EDT8.57P  9.92P  8.74P  8.20P  8.61P  10.42P  14.72P  18.05P  
20:00 EDT8.56P  9.87P  8.73P  8.20P  8.67P  10.41P  14.94P  18.06P  
20:30 EDT8.58P  9.82P  8.71P  8.20P  8.74P  10.41P  15.16P  18.08P  
21:00 EDT8.61P  9.78P  8.71P  8.20P  8.80P  10.40P  15.36P   
21:30 EDT8.66P  9.73P  8.71P  8.19P  8.87P  10.39P  15.55P   
22:00 EDT8.74P  9.68P  8.69P  8.19P  8.96P  10.39P  15.73P   
22:30 EDT8.83P  9.65P  8.68P  8.19P  9.04P  10.39P  15.90P   
23:00 EDT8.93P  9.60P  8.67P  8.18P  9.14P  10.38P  16.05P   
23:30 EDT9.03P  9.56P  8.66P  8.17P  9.24P  10.36P  16.19P   
COUNT4848484848484842
MAX9.1310.769.538.659.2410.4216.1918.08
MIN8.569.138.668.178.069.3310.1016.31

Explanation
  P  Provisional data subject to revision.